sensor_id;sensor_type;location;lat;lon;timestamp;P1;durP1;ratioP1;P2;durP2;ratioP2
4055;SDS011;2043;52.184;8.690;2023-06-22T11:53:38;14.80;;;10.70;;
4055;SDS011;2043;52.184;8.690;2023-06-22T11:56:05;12.65;;;9.88;;
4055;SDS011;2043;52.184;8.690;2023-06-22T11:58:34;12.43;;;10.15;;
4055;SDS011;2043;52.184;8.690;2023-06-22T12:01:01;14.85;;;11.18;;
4055;SDS011;2043;52.184;8.690;2023-06-22T12:03:28;17.90;;;10.77;;
4055;SDS011;2043;52.184;8.690;2023-06-22T12:05:55;17.73;;;9.70;;
4055;SDS011;2043;52.184;8.690;2023-06-22T12:08:22;11.23;;;8.95;;
4055;SDS011;2043;52.184;8.690;2023-06-22T12:10:49;14.57;;;9.57;;
4055;SDS011;2043;52.184;8.690;2023-06-22T12:13:16;11.93;;;9.40;;
4055;SDS011;2043;52.184;8.690;2023-06-22T12:15:43;14.77;;;9.88;;
4055;SDS011;2043;52.184;8.690;2023-06-22T12:18:10;12.80;;;9.70;;
4055;SDS011;2043;52.184;8.690;2023-06-22T12:20:37;12.20;;;9.23;;
4055;SDS011;2043;52.184;8.690;2023-06-22T12:23:07;12.98;;;9.90;;
4055;SDS011;2043;52.184;8.690;2023-06-22T12:25:34;12.15;;;10.48;;
4055;SDS011;2043;52.184;8.690;2023-06-22T12:28:00;16.23;;;9.80;;
4055;SDS011;2043;52.184;8.690;2023-06-22T12:30:30;11.25;;;10.05;;
4055;SDS011;2043;52.184;8.690;2023-06-22T12:32:58;13.32;;;10.05;;
4055;SDS011;2043;52.184;8.690;2023-06-22T12:35:26;12.88;;;10.00;;
4055;SDS011;2043;52.184;8.690;2023-06-22T12:37:52;13.75;;;10.20;;
4055;SDS011;2043;52.184;8.690;2023-06-22T12:40:19;11.88;;;10.25;;
4055;SDS011;2043;52.184;8.690;2023-06-22T12:42:46;14.48;;;9.98;;
4055;SDS011;2043;52.184;8.690;2023-06-22T12:45:13;15.35;;;10.05;;
4055;SDS011;2043;52.184;8.690;2023-06-22T12:47:39;13.10;;;10.80;;
4055;SDS011;2043;52.184;8.690;2023-06-22T12:50:07;17.77;;;9.80;;
4055;SDS011;2043;52.184;8.690;2023-06-22T12:52:36;13.90;;;9.98;;
4055;SDS011;2043;52.184;8.690;2023-06-22T12:55:05;12.63;;;10.50;;
4055;SDS011;2043;52.184;8.690;2023-06-22T12:57:35;16.80;;;10.27;;
4055;SDS011;2043;52.184;8.690;2023-06-22T13:00:06;13.90;;;10.23;;
4055;SDS011;2043;52.184;8.690;2023-06-22T13:02:35;13.30;;;10.18;;
4055;SDS011;2043;52.184;8.690;2023-06-22T13:05:03;14.52;;;10.05;;
4055;SDS011;2043;52.184;8.690;2023-06-22T13:07:33;13.95;;;10.63;;
4055;SDS011;2043;52.184;8.690;2023-06-22T13:10:03;14.30;;;11.18;;
4055;SDS011;2043;52.184;8.690;2023-06-22T13:12:30;14.52;;;10.18;;
4055;SDS011;2043;52.184;8.690;2023-06-22T13:14:56;16.63;;;12.05;;
4055;SDS011;2043;52.184;8.690;2023-06-22T13:17:23;16.58;;;11.50;;
4055;SDS011;2043;52.184;8.690;2023-06-22T13:19:53;13.63;;;11.50;;
4055;SDS011;2043;52.184;8.690;2023-06-22T13:24:59;16.00;;;11.63;;
4055;SDS011;2043;52.184;8.690;2023-06-22T13:27:26;12.48;;;11.05;;
4055;SDS011;2043;52.184;8.690;2023-06-22T13:29:53;14.90;;;12.30;;
4055;SDS011;2043;52.184;8.690;2023-06-22T13:32:20;17.30;;;12.80;;
4055;SDS011;2043;52.184;8.690;2023-06-22T13:34:47;19.47;;;12.77;;
4055;SDS011;2043;52.184;8.690;2023-06-22T13:37:13;15.60;;;12.67;;
4055;SDS011;2043;52.184;8.690;2023-06-22T13:39:41;15.27;;;12.10;;
4055;SDS011;2043;52.184;8.690;2023-06-22T13:42:08;16.70;;;11.63;;
4055;SDS011;2043;52.184;8.690;2023-06-22T13:44:35;17.30;;;11.93;;
4055;SDS011;2043;52.184;8.690;2023-06-22T13:47:01;18.80;;;11.90;;
4055;SDS011;2043;52.184;8.690;2023-06-22T13:49:29;13.80;;;11.93;;
4055;SDS011;2043;52.184;8.690;2023-06-22T13:51:55;13.30;;;11.90;;
4055;SDS011;2043;52.184;8.690;2023-06-22T13:54:22;15.83;;;13.17;;
4055;SDS011;2043;52.184;8.690;2023-06-22T13:56:55;17.63;;;13.10;;
4055;SDS011;2043;52.184;8.690;2023-06-22T13:59:22;20.50;;;13.70;;
4055;SDS011;2043;52.184;8.690;2023-06-22T14:01:49;20.67;;;14.53;;
4055;SDS011;2043;52.184;8.690;2023-06-22T14:04:16;19.20;;;13.17;;
4055;SDS011;2043;52.184;8.690;2023-06-22T14:06:43;21.73;;;14.40;;
4055;SDS011;2043;52.184;8.690;2023-06-22T14:09:10;26.63;;;15.70;;
4055;SDS011;2043;52.184;8.690;2023-06-22T14:11:37;20.67;;;15.40;;
4055;SDS011;2043;52.184;8.690;2023-06-22T14:14:03;23.10;;;16.50;;
4055;SDS011;2043;52.184;8.690;2023-06-22T14:16:30;27.93;;;16.50;;
4055;SDS011;2043;52.184;8.690;2023-06-22T14:18:57;19.27;;;14.53;;
4055;SDS011;2043;52.184;8.690;2023-06-22T14:21:25;25.60;;;15.90;;
4055;SDS011;2043;52.184;8.690;2023-06-22T14:23:52;25.57;;;16.43;;
4055;SDS011;2043;52.184;8.690;2023-06-22T14:26:19;24.80;;;18.40;;
4055;SDS011;2043;52.184;8.690;2023-06-22T14:28:46;23.63;;;16.57;;
4055;SDS011;2043;52.184;8.690;2023-06-22T14:31:14;26.20;;;16.10;;
4055;SDS011;2043;52.184;8.690;2023-06-22T14:33:45;30.93;;;18.37;;
4055;SDS011;2043;52.184;8.690;2023-06-22T14:36:13;20.60;;;16.43;;
4055;SDS011;2043;52.184;8.690;2023-06-22T14:38:41;21.90;;;17.50;;
4055;SDS011;2043;52.184;8.690;2023-06-22T14:41:08;24.43;;;18.87;;
4055;SDS011;2043;52.184;8.690;2023-06-22T14:43:43;23.23;;;17.83;;
4055;SDS011;2043;52.184;8.690;2023-06-22T14:46:11;26.83;;;18.40;;
4055;SDS011;2043;52.184;8.690;2023-06-22T14:48:38;26.37;;;20.93;;
4055;SDS011;2043;52.184;8.690;2023-06-22T14:51:05;29.17;;;20.13;;
4055;SDS011;2043;52.184;8.690;2023-06-22T14:53:43;32.03;;;22.37;;
4055;SDS011;2043;52.184;8.690;2023-06-22T14:56:11;30.47;;;21.83;;
4055;SDS011;2043;52.184;8.690;2023-06-22T14:58:39;28.80;;;21.80;;
4055;SDS011;2043;52.184;8.690;2023-06-22T15:01:09;28.10;;;21.83;;
4055;SDS011;2043;52.184;8.690;2023-06-22T15:03:36;30.13;;;21.50;;
4055;SDS011;2043;52.184;8.690;2023-06-22T15:06:03;28.90;;;23.87;;
4055;SDS011;2043;52.184;8.690;2023-06-22T15:08:30;29.80;;;21.87;;
4055;SDS011;2043;52.184;8.690;2023-06-22T15:11:00;27.93;;;22.00;;
4055;SDS011;2043;52.184;8.690;2023-06-22T15:13:29;33.10;;;22.63;;
4055;SDS011;2043;52.184;8.690;2023-06-22T15:16:00;28.93;;;22.20;;
4055;SDS011;2043;52.184;8.690;2023-06-22T15:18:27;24.43;;;20.43;;
4055;SDS011;2043;52.184;8.690;2023-06-22T15:20:54;26.93;;;21.10;;
4055;SDS011;2043;52.184;8.690;2023-06-22T15:23:21;27.70;;;21.20;;
4055;SDS011;2043;52.184;8.690;2023-06-22T15:25:48;26.00;;;20.73;;
4055;SDS011;2043;52.184;8.690;2023-06-22T15:28:15;28.53;;;22.63;;
4055;SDS011;2043;52.184;8.690;2023-06-22T15:30:43;27.27;;;20.50;;
4055;SDS011;2043;52.184;8.690;2023-06-22T15:33:13;27.57;;;21.97;;
4055;SDS011;2043;52.184;8.690;2023-06-22T15:35:40;26.13;;;21.10;;
4055;SDS011;2043;52.184;8.690;2023-06-22T15:38:07;30.33;;;22.17;;
4055;SDS011;2043;52.184;8.690;2023-06-22T15:40:34;26.57;;;21.20;;
4055;SDS011;2043;52.184;8.690;2023-06-22T15:43:00;33.60;;;22.43;;
4055;SDS011;2043;52.184;8.690;2023-06-22T15:45:28;28.43;;;21.27;;
4055;SDS011;2043;52.184;8.690;2023-06-22T15:47:55;28.20;;;21.60;;
4055;SDS011;2043;52.184;8.690;2023-06-22T15:50:22;31.80;;;21.77;;
4055;SDS011;2043;52.184;8.690;2023-06-22T15:52:48;29.50;;;22.90;;
4055;SDS011;2043;52.184;8.690;2023-06-22T15:55:18;32.03;;;23.33;;
4055;SDS011;2043;52.184;8.690;2023-06-22T15:57:45;29.87;;;23.53;;
4055;SDS011;2043;52.184;8.690;2023-06-22T16:00:14;29.90;;;24.47;;
4055;SDS011;2043;52.184;8.690;2023-06-22T16:02:45;37.37;;;25.37;;
4055;SDS011;2043;52.184;8.690;2023-06-22T16:05:13;29.10;;;22.67;;
4055;SDS011;2043;52.184;8.690;2023-06-22T16:07:42;27.70;;;21.90;;
4055;SDS011;2043;52.184;8.690;2023-06-22T16:10:09;29.67;;;23.43;;
4055;SDS011;2043;52.184;8.690;2023-06-22T16:12:36;24.53;;;20.60;;
4055;SDS011;2043;52.184;8.690;2023-06-22T16:15:07;26.37;;;20.17;;
4055;SDS011;2043;52.184;8.690;2023-06-22T16:17:34;23.67;;;19.60;;
4055;SDS011;2043;52.184;8.690;2023-06-22T16:20:05;24.03;;;19.17;;
4055;SDS011;2043;52.184;8.690;2023-06-22T16:22:33;21.50;;;18.00;;
4055;SDS011;2043;52.184;8.690;2023-06-22T16:25:00;24.90;;;17.43;;
4055;SDS011;2043;52.184;8.690;2023-06-22T16:27:30;27.90;;;18.57;;
4055;SDS011;2043;52.184;8.690;2023-06-22T16:29:58;22.10;;;17.87;;
4055;SDS011;2043;52.184;8.690;2023-06-22T16:32:25;21.40;;;17.93;;
4055;SDS011;2043;52.184;8.690;2023-06-22T16:34:52;22.60;;;17.87;;
4055;SDS011;2043;52.184;8.690;2023-06-22T16:37:19;20.40;;;17.07;;
4055;SDS011;2043;52.184;8.690;2023-06-22T16:39:46;21.80;;;18.67;;
4055;SDS011;2043;52.184;8.690;2023-06-22T16:42:14;20.57;;;17.60;;
4055;SDS011;2043;52.184;8.690;2023-06-22T16:44:40;27.83;;;17.10;;
4055;SDS011;2043;52.184;8.690;2023-06-22T16:47:07;21.70;;;17.60;;
4055;SDS011;2043;52.184;8.690;2023-06-22T16:49:34;22.90;;;17.37;;
4055;SDS011;2043;52.184;8.690;2023-06-22T16:52:04;21.60;;;17.73;;
4055;SDS011;2043;52.184;8.690;2023-06-22T16:54:34;19.90;;;16.80;;
4055;SDS011;2043;52.184;8.690;2023-06-22T16:57:07;21.13;;;18.07;;
4055;SDS011;2043;52.184;8.690;2023-06-22T16:59:34;23.80;;;18.30;;
4055;SDS011;2043;52.184;8.690;2023-06-22T17:02:01;20.60;;;16.30;;
4055;SDS011;2043;52.184;8.690;2023-06-22T17:04:29;21.43;;;17.60;;
4055;SDS011;2043;52.184;8.690;2023-06-22T17:07:10;24.93;;;19.07;;
4055;SDS011;2043;52.184;8.690;2023-06-22T17:09:40;27.97;;;18.87;;
4055;SDS011;2043;52.184;8.690;2023-06-22T17:12:09;24.73;;;19.37;;
4055;SDS011;2043;52.184;8.690;2023-06-22T17:14:37;23.77;;;20.00;;
4055;SDS011;2043;52.184;8.690;2023-06-22T17:17:05;23.23;;;18.97;;
4055;SDS011;2043;52.184;8.690;2023-06-22T17:19:33;24.70;;;18.67;;
4055;SDS011;2043;52.184;8.690;2023-06-22T17:21:59;29.77;;;20.30;;
4055;SDS011;2043;52.184;8.690;2023-06-22T17:24:26;31.10;;;20.27;;
4055;SDS011;2043;52.184;8.690;2023-06-22T17:26:54;26.40;;;20.80;;
4055;SDS011;2043;52.184;8.690;2023-06-22T17:29:27;28.07;;;20.90;;
4055;SDS011;2043;52.184;8.690;2023-06-22T17:31:58;40.63;;;23.40;;
4055;SDS011;2043;52.184;8.690;2023-06-22T17:34:28;29.20;;;22.70;;
4055;SDS011;2043;52.184;8.690;2023-06-22T17:36:56;40.40;;;23.00;;
4055;SDS011;2043;52.184;8.690;2023-06-22T17:39:25;31.57;;;21.93;;
4055;SDS011;2043;52.184;8.690;2023-06-22T17:41:55;26.73;;;20.50;;
4055;SDS011;2043;52.184;8.690;2023-06-22T17:44:26;27.43;;;20.80;;
4055;SDS011;2043;52.184;8.690;2023-06-22T17:46:54;29.80;;;22.60;;
4055;SDS011;2043;52.184;8.690;2023-06-22T17:49:26;29.27;;;22.20;;
4055;SDS011;2043;52.184;8.690;2023-06-22T17:51:54;30.07;;;23.23;;
4055;SDS011;2043;52.184;8.690;2023-06-22T17:54:21;28.00;;;23.63;;
4055;SDS011;2043;52.184;8.690;2023-06-22T17:57:15;29.43;;;22.90;;
4055;SDS011;2043;52.184;8.690;2023-06-22T17:59:49;30.93;;;23.30;;
4055;SDS011;2043;52.184;8.690;2023-06-22T18:02:21;38.83;;;25.17;;
4055;SDS011;2043;52.184;8.690;2023-06-22T18:07:37;41.83;;;25.77;;
4055;SDS011;2043;52.184;8.690;2023-06-22T18:10:05;33.50;;;24.30;;
4055;SDS011;2043;52.184;8.690;2023-06-22T18:12:34;29.13;;;23.00;;
4055;SDS011;2043;52.184;8.690;2023-06-22T18:15:02;31.00;;;24.37;;
4055;SDS011;2043;52.184;8.690;2023-06-22T18:17:30;31.10;;;25.90;;
4055;SDS011;2043;52.184;8.690;2023-06-22T18:19:57;29.50;;;24.10;;
4055;SDS011;2043;52.184;8.690;2023-06-22T18:22:26;32.77;;;23.13;;
4055;SDS011;2043;52.184;8.690;2023-06-22T18:24:54;35.00;;;24.13;;
4055;SDS011;2043;52.184;8.690;2023-06-22T18:27:23;31.20;;;22.33;;
4055;SDS011;2043;52.184;8.690;2023-06-22T18:29:51;25.53;;;21.60;;
4055;SDS011;2043;52.184;8.690;2023-06-22T18:32:21;26.20;;;21.33;;
4055;SDS011;2043;52.184;8.690;2023-06-22T18:34:48;27.60;;;23.20;;
4055;SDS011;2043;52.184;8.690;2023-06-22T18:37:17;31.07;;;22.40;;
4055;SDS011;2043;52.184;8.690;2023-06-22T18:39:45;31.70;;;22.80;;
4055;SDS011;2043;52.184;8.690;2023-06-22T18:42:16;35.27;;;23.00;;
4055;SDS011;2043;52.184;8.690;2023-06-22T18:44:43;31.00;;;22.80;;
4055;SDS011;2043;52.184;8.690;2023-06-22T18:47:10;25.50;;;21.67;;
4055;SDS011;2043;52.184;8.690;2023-06-22T18:54:40;25.87;;;21.97;;
4055;SDS011;2043;52.184;8.690;2023-06-22T18:57:24;30.33;;;22.70;;
4055;SDS011;2043;52.184;8.690;2023-06-22T19:00:07;25.80;;;22.33;;
4055;SDS011;2043;52.184;8.690;2023-06-22T19:02:40;28.30;;;22.80;;
4055;SDS011;2043;52.184;8.690;2023-06-22T19:05:39;27.83;;;21.80;;
4055;SDS011;2043;52.184;8.690;2023-06-22T19:08:07;25.50;;;21.20;;
4055;SDS011;2043;52.184;8.690;2023-06-22T19:10:40;29.77;;;21.53;;
4055;SDS011;2043;52.184;8.690;2023-06-22T19:15:57;35.17;;;23.07;;
4055;SDS011;2043;52.184;8.690;2023-06-22T19:18:31;26.40;;;20.27;;
4055;SDS011;2043;52.184;8.690;2023-06-22T19:21:01;28.47;;;21.90;;
4055;SDS011;2043;52.184;8.690;2023-06-22T19:23:30;26.73;;;21.73;;
4055;SDS011;2043;52.184;8.690;2023-06-22T19:26:01;31.80;;;20.80;;
4055;SDS011;2043;52.184;8.690;2023-06-22T19:28:29;27.70;;;21.17;;
4055;SDS011;2043;52.184;8.690;2023-06-22T19:31:00;24.00;;;20.00;;
4055;SDS011;2043;52.184;8.690;2023-06-22T19:33:28;26.87;;;20.87;;
4055;SDS011;2043;52.184;8.690;2023-06-22T19:35:56;24.50;;;20.77;;
4055;SDS011;2043;52.184;8.690;2023-06-22T19:38:26;25.03;;;21.53;;
4055;SDS011;2043;52.184;8.690;2023-06-22T19:40:53;25.03;;;21.53;;
4055;SDS011;2043;52.184;8.690;2023-06-22T19:43:20;23.30;;;19.73;;
4055;SDS011;2043;52.184;8.690;2023-06-22T19:45:48;24.47;;;19.73;;
4055;SDS011;2043;52.184;8.690;2023-06-22T19:48:15;24.10;;;19.77;;
4055;SDS011;2043;52.184;8.690;2023-06-22T19:50:42;22.97;;;19.47;;
4055;SDS011;2043;52.184;8.690;2023-06-22T19:53:09;23.20;;;18.40;;
4055;SDS011;2043;52.184;8.690;2023-06-22T19:55:42;23.40;;;17.83;;
4055;SDS011;2043;52.184;8.690;2023-06-22T19:58:12;23.97;;;19.23;;
4055;SDS011;2043;52.184;8.690;2023-06-22T20:00:40;21.80;;;18.90;;
4055;SDS011;2043;52.184;8.690;2023-06-22T20:03:15;22.90;;;18.20;;
4055;SDS011;2043;52.184;8.690;2023-06-22T20:05:43;23.33;;;19.80;;
4055;SDS011;2043;52.184;8.690;2023-06-22T20:08:15;24.50;;;19.53;;
4055;SDS011;2043;52.184;8.690;2023-06-22T20:10:43;24.30;;;19.13;;
4055;SDS011;2043;52.184;8.690;2023-06-22T20:13:10;23.17;;;19.97;;
4055;SDS011;2043;52.184;8.690;2023-06-22T20:15:42;26.90;;;18.80;;
4055;SDS011;2043;52.184;8.690;2023-06-22T20:18:10;25.20;;;20.60;;
4055;SDS011;2043;52.184;8.690;2023-06-22T20:20:41;24.87;;;19.03;;
4055;SDS011;2043;52.184;8.690;2023-06-22T20:23:09;23.47;;;18.43;;
4055;SDS011;2043;52.184;8.690;2023-06-22T20:25:37;22.83;;;19.03;;
4055;SDS011;2043;52.184;8.690;2023-06-22T20:31:27;28.97;;;20.97;;
4055;SDS011;2043;52.184;8.690;2023-06-22T20:33:32;29.63;;;20.10;;
4055;SDS011;2043;52.184;8.690;2023-06-22T20:36:00;27.60;;;21.23;;
4055;SDS011;2043;52.184;8.690;2023-06-22T20:38:27;24.30;;;18.63;;
4055;SDS011;2043;52.184;8.690;2023-06-22T20:40:55;28.17;;;20.53;;
4055;SDS011;2043;52.184;8.690;2023-06-22T20:43:22;25.77;;;20.37;;
4055;SDS011;2043;52.184;8.690;2023-06-22T20:45:53;24.33;;;20.10;;
4055;SDS011;2043;52.184;8.690;2023-06-22T20:48:21;23.53;;;19.50;;
4055;SDS011;2043;52.184;8.690;2023-06-22T20:51:03;24.67;;;19.43;;
4055;SDS011;2043;52.184;8.690;2023-06-22T20:53:30;25.77;;;19.97;;
4055;SDS011;2043;52.184;8.690;2023-06-22T20:55:57;25.10;;;20.07;;
4055;SDS011;2043;52.184;8.690;2023-06-22T20:58:24;23.50;;;19.73;;
4055;SDS011;2043;52.184;8.690;2023-06-22T21:00:51;24.83;;;19.30;;
4055;SDS011;2043;52.184;8.690;2023-06-22T21:03:18;25.67;;;20.33;;
4055;SDS011;2043;52.184;8.690;2023-06-22T21:05:45;23.67;;;19.00;;
4055;SDS011;2043;52.184;8.690;2023-06-22T21:08:12;22.90;;;18.87;;
4055;SDS011;2043;52.184;8.690;2023-06-22T21:10:39;26.70;;;19.10;;
4055;SDS011;2043;52.184;8.690;2023-06-22T21:13:07;27.03;;;19.10;;
4055;SDS011;2043;52.184;8.690;2023-06-22T21:15:34;25.23;;;18.77;;
4055;SDS011;2043;52.184;8.690;2023-06-22T21:18:00;25.53;;;19.77;;
4055;SDS011;2043;52.184;8.690;2023-06-22T21:20:27;24.23;;;18.13;;
4055;SDS011;2043;52.184;8.690;2023-06-22T21:22:54;25.57;;;18.60;;
4055;SDS011;2043;52.184;8.690;2023-06-22T21:25:21;25.93;;;19.30;;
4055;SDS011;2043;52.184;8.690;2023-06-22T21:27:47;21.57;;;17.27;;
4055;SDS011;2043;52.184;8.690;2023-06-22T21:30:14;28.50;;;18.33;;
4055;SDS011;2043;52.184;8.690;2023-06-22T21:32:41;21.80;;;18.90;;
4055;SDS011;2043;52.184;8.690;2023-06-22T21:35:08;23.30;;;17.87;;
4055;SDS011;2043;52.184;8.690;2023-06-22T21:37:37;23.40;;;18.83;;
4055;SDS011;2043;52.184;8.690;2023-06-22T21:40:05;22.43;;;18.50;;
4055;SDS011;2043;52.184;8.690;2023-06-22T21:42:32;24.27;;;18.77;;
4055;SDS011;2043;52.184;8.690;2023-06-22T21:44:59;23.13;;;18.20;;
4055;SDS011;2043;52.184;8.690;2023-06-22T21:47:26;24.57;;;18.80;;
4055;SDS011;2043;52.184;8.690;2023-06-22T21:49:53;22.37;;;17.97;;
4055;SDS011;2043;52.184;8.690;2023-06-22T21:52:20;24.27;;;18.57;;
4055;SDS011;2043;52.184;8.690;2023-06-22T21:54:47;22.80;;;19.17;;
4055;SDS011;2043;52.184;8.690;2023-06-22T21:57:14;24.00;;;18.60;;
4055;SDS011;2043;52.184;8.690;2023-06-22T21:59:40;32.13;;;18.73;;
4055;SDS011;2043;52.184;8.690;2023-06-22T22:02:07;23.60;;;18.00;;
4055;SDS011;2043;52.184;8.690;2023-06-22T22:04:34;27.60;;;18.37;;
4055;SDS011;2043;52.184;8.690;2023-06-22T22:07:01;24.60;;;17.97;;
4055;SDS011;2043;52.184;8.690;2023-06-22T22:09:31;22.93;;;19.23;;
4055;SDS011;2043;52.184;8.690;2023-06-22T22:11:58;26.10;;;19.50;;
4055;SDS011;2043;52.184;8.690;2023-06-22T22:14:24;23.33;;;18.73;;
4055;SDS011;2043;52.184;8.690;2023-06-22T22:16:51;27.20;;;19.70;;
4055;SDS011;2043;52.184;8.690;2023-06-22T22:19:18;30.80;;;19.70;;
4055;SDS011;2043;52.184;8.690;2023-06-22T22:21:46;27.97;;;19.40;;
4055;SDS011;2043;52.184;8.690;2023-06-22T22:24:13;23.90;;;18.57;;
4055;SDS011;2043;52.184;8.690;2023-06-22T22:26:40;25.37;;;19.50;;
4055;SDS011;2043;52.184;8.690;2023-06-22T22:29:07;30.53;;;20.60;;
4055;SDS011;2043;52.184;8.690;2023-06-22T22:31:33;26.27;;;19.30;;
4055;SDS011;2043;52.184;8.690;2023-06-22T22:34:05;27.37;;;20.10;;
4055;SDS011;2043;52.184;8.690;2023-06-22T22:36:32;28.77;;;19.40;;
4055;SDS011;2043;52.184;8.690;2023-06-22T22:38:59;31.10;;;20.27;;
4055;SDS011;2043;52.184;8.690;2023-06-22T22:41:27;25.57;;;19.60;;
4055;SDS011;2043;52.184;8.690;2023-06-22T22:43:54;23.60;;;19.47;;
4055;SDS011;2043;52.184;8.690;2023-06-22T22:46:24;25.33;;;19.63;;
4055;SDS011;2043;52.184;8.690;2023-06-22T22:48:52;23.40;;;18.57;;
4055;SDS011;2043;52.184;8.690;2023-06-22T22:51:19;25.40;;;19.20;;
4055;SDS011;2043;52.184;8.690;2023-06-22T22:53:45;24.37;;;18.67;;
4055;SDS011;2043;52.184;8.690;2023-06-22T22:56:12;27.30;;;18.70;;
4055;SDS011;2043;52.184;8.690;2023-06-22T22:58:39;25.07;;;17.67;;
4055;SDS011;2043;52.184;8.690;2023-06-22T23:01:06;22.73;;;18.07;;
4055;SDS011;2043;52.184;8.690;2023-06-22T23:03:33;25.67;;;17.60;;
4055;SDS011;2043;52.184;8.690;2023-06-22T23:06:01;23.63;;;17.87;;
4055;SDS011;2043;52.184;8.690;2023-06-22T23:08:28;25.27;;;17.00;;
4055;SDS011;2043;52.184;8.690;2023-06-22T23:10:55;23.37;;;17.47;;
4055;SDS011;2043;52.184;8.690;2023-06-22T23:13:21;23.17;;;17.37;;
4055;SDS011;2043;52.184;8.690;2023-06-22T23:15:48;21.07;;;16.37;;
4055;SDS011;2043;52.184;8.690;2023-06-22T23:18:17;22.63;;;16.60;;
4055;SDS011;2043;52.184;8.690;2023-06-22T23:20:45;21.47;;;17.00;;
4055;SDS011;2043;52.184;8.690;2023-06-22T23:23:11;22.93;;;18.10;;
4055;SDS011;2043;52.184;8.690;2023-06-22T23:25:39;25.20;;;17.80;;
4055;SDS011;2043;52.184;8.690;2023-06-22T23:28:06;26.03;;;17.93;;
4055;SDS011;2043;52.184;8.690;2023-06-22T23:30:33;21.30;;;17.60;;
4055;SDS011;2043;52.184;8.690;2023-06-22T23:33:00;31.93;;;17.90;;
4055;SDS011;2043;52.184;8.690;2023-06-22T23:35:27;23.90;;;18.77;;
4055;SDS011;2043;52.184;8.690;2023-06-22T23:37:54;24.53;;;18.70;;
4055;SDS011;2043;52.184;8.690;2023-06-22T23:40:21;28.40;;;19.50;;
4055;SDS011;2043;52.184;8.690;2023-06-22T23:42:48;32.33;;;21.20;;
4055;SDS011;2043;52.184;8.690;2023-06-22T23:45:19;25.10;;;18.80;;
4055;SDS011;2043;52.184;8.690;2023-06-22T23:47:46;29.27;;;20.67;;
4055;SDS011;2043;52.184;8.690;2023-06-22T23:50:14;25.73;;;20.20;;
4055;SDS011;2043;52.184;8.690;2023-06-22T23:52:42;26.40;;;19.43;;
4055;SDS011;2043;52.184;8.690;2023-06-22T23:55:17;31.37;;;21.33;;
4055;SDS011;2043;52.184;8.690;2023-06-22T23:57:45;31.70;;;21.27;;
